Time;durP1;ratioP1;P1;durP2;ratioP2;P2;SDS_P1;SDS_P2;PMS_P1;PMS_P2;Temp;Humidity;BMP_temperature;BMP_pressure;BME280_temperature;BME280_humidity;BME280_pressure;Samples;Min_cycle;Max_cycle;Signal;HPM_P1;HPM_P2
2023/03/26 00:00:57;;;;;;;9.48;3.67;;;7.90;99.90;;;;;;5025031;28;20379;-62
2023/03/26 00:03:23;;;;;;;14.13;4.38;;;7.80;99.90;;;;;;5046388;28;20041;-62
2023/03/26 00:06:11;;;;;;;15.05;4.22;;;7.90;99.90;;;;;;5044047;28;20032;-62
2023/03/26 00:08:39;;;;;;;12.50;4.82;;;7.90;99.90;;;;;;5041067;28;20183;-62
2023/03/26 00:11:07;;;;;;;16.73;4.55;;;7.90;99.90;;;;;;5036859;28;20037;-62
2023/03/26 00:13:34;;;;;;;11.88;3.63;;;7.80;99.90;;;;;;5046300;28;20041;-62
2023/03/26 00:16:00;;;;;;;11.32;4.20;;;;;;;;;;5043867;28;20144;-63
2023/03/26 00:18:30;;;;;;;17.48;5.65;;;;;;;;;;5036571;28;20308;-62
2023/03/26 00:21:00;;;;;;;22.60;5.05;;;;;;;;;;5036855;28;20099;-62
2023/03/26 00:23:27;;;;;;;13.88;4.30;;;;;;;;;;5045682;28;20045;-62
2023/03/26 00:25:54;;;;;;;24.70;5.10;;;;;;;;;;5043835;28;20418;-62
2023/03/26 00:28:21;;;;;;;9.43;4.15;;;;;;;;;;5034896;28;20061;-62
2023/03/26 00:30:48;;;;;;;9.32;3.65;;;;;;;;;;5044262;28;20439;-62
2023/03/26 00:33:17;;;;;;;13.10;4.68;;;;;;;;;;5047989;28;20459;-62
2023/03/26 00:35:45;;;;;;;16.33;4.07;;;;;;;;;;5044276;28;20044;-62
2023/03/26 00:38:13;;;;;;;14.32;4.28;;;;;;;;;;5040385;28;20045;-62
2023/03/26 00:40:42;;;;;;;17.42;5.38;;;;;;;;;;5044363;28;20037;-62
2023/03/26 00:43:17;;;;;;;13.43;3.92;;;;;;;;;;5046441;28;20061;-62
2023/03/26 00:45:45;;;;;;;12.23;3.67;;;;;;;;;;5028690;28;20114;-62
2023/03/26 00:48:12;;;;;;;17.05;4.65;;;;;;;;;;5030103;28;20159;-62
2023/03/26 00:50:38;;;;;;;19.17;5.22;;;;;;;;;;5036098;28;20041;-62
2023/03/26 00:53:04;;;;;;;12.57;5.03;;;;;;;;;;5030392;28;20054;-62
2023/03/26 00:55:30;;;;;;;11.35;4.38;;;;;;;;;;5044632;28;20075;-62
2023/03/26 00:57:56;;;;;;;13.43;3.88;;;;;;;;;;5050484;28;20045;-62
2023/03/26 01:00:34;;;;;;;17.15;5.35;;;;;;;;;;5031079;28;20384;-62
2023/03/26 01:03:00;;;;;;;15.88;4.55;;;;;;;;;;5029154;28;20072;-62
2023/03/26 01:05:33;;;;;;;16.90;4.22;;;;;;;;;;5037122;28;20176;-62
2023/03/26 01:08:19;;;;;;;13.10;4.00;;;;;;;;;;5054514;28;20411;-62
2023/03/26 01:10:49;;;;;;;17.38;4.22;;;;;;;;;;5025744;28;20048;-62
2023/03/26 01:13:23;;;;;;;13.82;4.00;;;;;;;;;;5042415;28;20543;-62
2023/03/26 01:15:49;;;;;;;15.32;4.25;;;;;;;;;;5029772;28;20116;-62
2023/03/26 01:18:32;;;;;;;19.75;5.20;;;;;;;;;;5050113;28;20127;-62
2023/03/26 01:21:03;;;;;;;9.20;3.88;;;;;;;;;;5048861;28;20395;-62
2023/03/26 01:23:47;;;;;;;17.70;4.78;;;;;;;;;;5049984;28;20107;-62
2023/03/26 01:26:32;;;;;;;19.38;4.80;;;;;;;;;;5047512;28;20339;-62
2023/03/26 01:29:00;;;;;;;21.63;4.70;;;;;;;;;;5020615;28;20114;-62
2023/03/26 01:31:30;;;;;;;17.98;4.45;;;;;;;;;;5039496;28;20060;-63
2023/03/26 01:34:11;;;;;;;15.88;4.45;;;;;;;;;;5044098;28;20063;-63
2023/03/26 01:36:46;;;;;;;18.58;4.43;;;;;;;;;;5047630;28;20110;-63
2023/03/26 01:39:26;;;;;;;19.85;4.90;;;;;;;;;;5025993;28;20048;-63
2023/03/26 01:41:56;;;;;;;8.77;3.53;;;;;;;;;;5042435;28;20029;-63
2023/03/26 01:44:26;;;;;;;14.70;5.20;;;;;;;;;;5039955;28;20064;-63
2023/03/26 01:46:52;;;;;;;13.88;4.03;;;;;;;;;;5020549;28;20085;-63
2023/03/26 01:49:19;;;;;;;14.32;3.92;;;;;;;;;;5027323;28;20041;-63
2023/03/26 01:51:46;;;;;;;18.20;5.47;;;;;;;;;;5027895;28;20080;-63
2023/03/26 01:54:17;;;;;;;10.30;4.00;;;;;;;;;;5030919;28;20407;-63
2023/03/26 01:56:50;;;;;;;11.32;4.72;;;;;;;;;;5036508;28;20029;-63
2023/03/26 01:59:19;;;;;;;14.30;4.25;;;;;;;;;;5042614;28;20128;-63
2023/03/26 02:01:53;;;;;;;14.15;4.43;;;;;;;;;;5043254;28;20053;-63
2023/03/26 02:04:19;;;;;;;16.30;4.75;;;;;;;;;;5047587;28;20152;-63
2023/03/26 02:06:50;;;;;;;21.15;6.57;;;;;;;;;;5046645;28;20501;-63
2023/03/26 02:09:19;;;;;;;20.25;5.68;;;;;;;;;;5049732;28;20091;-63
2023/03/26 02:11:46;;;;;;;15.93;5.40;;;;;;;;;;5047215;28;20304;-63
2023/03/26 02:14:13;;;;;;;11.95;5.07;;;;;;;;;;5032896;28;20055;-63
2023/03/26 02:16:39;;;;;;;12.95;5.70;;;;;;;;;;5045209;28;20415;-63
2023/03/26 02:19:14;;;;;;;15.75;5.03;;;;;;;;;;5046523;28;20409;-63
2023/03/26 02:21:40;;;;;;;17.42;6.43;;;;;;;;;;5042583;28;20029;-63
2023/03/26 02:24:06;;;;;;;12.35;4.50;;;;;;;;;;5035827;28;20084;-63
2023/03/26 02:26:33;;;;;;;13.80;4.88;;;;;;;;;;5025522;28;20051;-63
2023/03/26 02:29:00;;;;;;;16.95;6.03;;;;;;;;;;5004448;28;1127297;-63
2023/03/26 02:31:27;;;;;;;28.70;5.70;;;;;;;;;;5044520;28;20057;-63
2023/03/26 02:33:54;;;;;;;15.90;5.07;;;;;;;;;;5048499;28;20560;-63
2023/03/26 02:36:23;;;;;;;16.63;4.38;;;;;;;;;;5045782;28;20527;-63
2023/03/26 02:38:50;;;;;;;12.98;5.07;;;;;;;;;;5046033;28;20041;-65
2023/03/26 02:41:16;;;;;;;10.65;4.03;;;;;;;;;;5045337;28;20081;-63
2023/03/26 02:43:43;;;;;;;19.23;3.97;;;;;;;;;;5031062;28;20032;-63
2023/03/26 02:46:09;;;;;;;15.35;4.70;;;;;;;;;;5012552;28;20048;-63
2023/03/26 02:48:35;;;;;;;15.70;5.25;;;;;;;;;;5044999;28;20529;-63
2023/03/26 02:51:02;;;;;;;18.08;3.85;;;;;;;;;;5045084;28;20045;-63
2023/03/26 02:53:31;;;;;;;19.40;5.90;;;;;;;;;;5039630;28;20048;-63
2023/03/26 02:55:57;;;;;;;15.23;4.10;;;;;;;;;;5047437;28;20037;-63
2023/03/26 02:58:28;;;;;;;15.32;5.00;;;;;;;;;;5046892;28;20044;-63
2023/03/26 03:00:55;;;;;;;16.48;4.50;;;;;;;;;;5046903;28;20048;-63
2023/03/26 03:03:23;;;;;;;18.23;4.30;;;;;;;;;;5031123;28;20103;-63
2023/03/26 03:05:52;;;;;;;12.98;4.80;;;;;;;;;;5034213;28;20095;-63
2023/03/26 03:08:19;;;;;;;9.38;5.13;;;;;;;;;;5031113;28;20048;-63
2023/03/26 03:10:56;;;;;;;19.17;5.00;;;;;;;;;;5050889;28;20047;-63
2023/03/26 03:13:22;;;;;;;17.85;5.50;;;;;;;;;;5047411;28;20079;-64
2023/03/26 03:15:48;;;;;;;12.40;4.20;;;;;;;;;;5041725;28;20407;-63
2023/03/26 03:18:14;;;;;;;12.00;4.00;;;;;;;;;;5049068;28;20041;-63
2023/03/26 03:20:41;;;;;;;16.15;4.47;;;;;;;;;;5030108;28;20038;-63
2023/03/26 03:23:07;;;;;;;19.70;4.63;;;;;;;;;;5042800;28;20044;-63
2023/03/26 03:25:33;;;;;;;18.55;4.93;;;;;;;;;;5035716;28;20108;-63
2023/03/26 03:27:59;;;;;;;15.30;5.40;;;;;;;;;;5052354;28;20395;-64
2023/03/26 03:30:25;;;;;;;16.88;4.57;;;;;;;;;;5050080;28;20057;-63
2023/03/26 03:32:51;;;;;;;12.00;3.72;;;;;;;;;;5024938;28;20040;-63
2023/03/26 03:35:17;;;;;;;16.42;4.30;;;;;;;;;;5055304;28;20040;-63
2023/03/26 03:37:44;;;;;;;15.48;4.72;;;;;;;;;;5049895;28;20100;-63
2023/03/26 03:40:10;;;;;;;9.82;4.18;;;;;;;;;;5053335;28;20115;-63
2023/03/26 03:42:37;;;;;;;15.68;4.13;;;;;;;;;;5050497;28;20033;-63
2023/03/26 03:45:06;;;;;;;19.20;4.65;;;;;;;;;;5051893;28;20068;-63
2023/03/26 03:47:32;;;;;;;14.95;5.10;;;;;;;;;;5051850;28;20446;-63
2023/03/26 03:49:59;;;;;;;12.90;4.18;;;;;;;;;;5022604;28;20033;-63
2023/03/26 03:52:26;;;;;;;11.82;4.38;;;;;;;;;;5050551;28;20040;-63
2023/03/26 03:54:53;;;;;;;23.65;6.18;;;;;;;;;;5059038;28;20040;-63
2023/03/26 03:57:20;;;;;;;8.02;3.03;;;;;;;;;;5017648;28;20052;-63
2023/03/26 03:59:47;;;;;;;13.30;4.50;;;;;;;;;;5032975;28;20033;-63
2023/03/26 04:02:13;;;;;;;13.95;4.05;;;;;;;;;;5048534;28;20044;-64
2023/03/26 04:04:39;;;;;;;12.63;3.88;;;;;;;;;;5046561;28;20071;-63
2023/03/26 04:07:05;;;;;;;12.70;3.60;;;;;;;;;;5044294;28;20037;-63
2023/03/26 04:09:31;;;;;;;11.82;5.20;;;;;;;;;;5043822;28;20041;-63
2023/03/26 04:11:58;;;;;;;14.57;3.58;;;;;;;;;;5036194;28;20060;-63
2023/03/26 04:14:24;;;;;;;13.82;3.65;;;;;;;;;;5050406;28;20044;-63
2023/03/26 04:16:50;;;;;;;13.00;4.07;;;;;;;;;;5040406;28;20579;-63
2023/03/26 04:19:16;;;;;;;12.82;3.95;;;;;;;;;;5048485;28;20083;-63
2023/03/26 04:21:42;;;;;;;9.27;3.53;;;;;;;;;;5052582;28;20032;-63
2023/03/26 04:24:09;;;;;;;15.13;3.35;;;;;;;;;;5058111;28;20044;-63
2023/03/26 04:26:35;;;;;;;8.15;4.10;;;;;;;;;;5048588;28;20131;-63
2023/03/26 04:29:04;;;;;;;14.38;3.78;;;;;;;;;;5031670;28;20082;-63
2023/03/26 04:31:30;;;;;;;10.40;3.45;;;;;;;;;;5057582;28;20132;-61
2023/03/26 04:34:00;;;;;;;11.07;4.30;;;;;;;;;;5040925;28;20044;-61
2023/03/26 04:36:28;;;;;;;11.57;3.65;;;;;;;;;;5046477;28;20075;-61
2023/03/26 04:38:57;;;;;;;15.95;4.60;;;;;;;;;;5050240;28;20121;-61
2023/03/26 04:41:26;;;;;;;15.98;4.03;;;;;;;;;;5049813;28;20041;-61
2023/03/26 04:43:53;;;;;;;12.43;3.42;;;;;;;;;;5059685;28;20108;-61
2023/03/26 04:46:22;;;;;;;12.15;4.05;;;;;;;;;;5053382;28;20442;-61
2023/03/26 04:48:49;;;;;;;17.88;3.88;;;;;;;;;;5055749;28;20045;-61
2023/03/26 04:51:19;;;;;;;11.00;3.88;;;;;;;;;;5056809;28;20112;-61
2023/03/26 04:53:51;;;;;;;13.07;4.63;;;;;;;;;;5050631;28;20044;-61
2023/03/26 04:56:34;;;;;;;16.23;3.90;;;;;;;;;;5034089;28;20041;-61
2023/03/26 04:59:01;;;;;;;20.38;3.97;;;;;;;;;;5051306;28;20037;-61
2023/03/26 05:01:27;;;;;;;11.52;3.97;;;;;;;;;;5054035;28;20037;-61
2023/03/26 05:03:54;;;;;;;17.20;4.95;;;;;;;;;;5050403;28;20033;-61
2023/03/26 05:06:21;;;;;;;17.15;4.25;;;;;;;;;;5038141;28;20040;-62
2023/03/26 05:08:47;;;;;;;14.43;4.28;;;;;;;;;;5040420;28;20059;-61
2023/03/26 05:11:13;;;;;;;17.05;4.57;;;;;;;;;;5055215;28;20051;-62
2023/03/26 05:13:41;;;;;;;9.23;4.10;;;;;;;;;;5017875;28;20037;-62
2023/03/26 05:16:08;;;;;;;10.55;3.53;;;;;;;;;;5049218;28;20041;-61
2023/03/26 05:18:34;;;;;;;12.18;4.28;;;;;;;;;;5035424;28;20072;-61
2023/03/26 05:21:01;;;;;;;9.32;3.85;;;;;;;;;;5058375;28;20035;-61
2023/03/26 05:23:27;;;;;;;11.85;4.22;;;;;;;;;;5031757;28;20409;-63
2023/03/26 05:25:53;;;;;;;15.73;3.92;;;;;;;;;;5054414;28;20040;-61
2023/03/26 05:28:23;;;;;;;13.25;3.58;;;;;;;;;;5036791;28;20049;-61
2023/03/26 05:30:49;;;;;;;15.95;3.97;;;;;;;;;;5058445;28;20083;-61
2023/03/26 05:33:16;;;;;;;11.90;4.38;;;;;;;;;;5052581;28;20426;-62
2023/03/26 05:35:42;;;;;;;14.38;4.35;;;;;;;;;;5048382;28;20037;-61
2023/03/26 05:38:08;;;;;;;13.20;3.55;;;;;;;;;;5054896;28;20074;-62
2023/03/26 05:40:34;;;;;;;21.38;4.63;;;;;;;;;;5052691;28;20095;-62
2023/03/26 05:43:01;;;;;;;12.50;5.00;;;;;;;;;;5049623;28;20452;-62
2023/03/26 05:45:27;;;;;;;15.77;4.07;;;;;;;;;;5039611;28;21069;-62
2023/03/26 05:47:54;;;;;;;22.40;4.50;;;;;;;;;;5043106;28;20118;-62
2023/03/26 05:50:21;;;;;;;12.18;3.90;;;;;;;;;;5021005;28;20037;-62
2023/03/26 05:52:47;;;;;;;14.43;3.88;;;;;;;;;;5038177;28;20038;-62
2023/03/26 05:55:13;;;;;;;16.63;4.28;;;;;;;;;;5046036;28;20163;-62
2023/03/26 05:57:40;;;;;;;11.95;4.45;;;;;;;;;;5042191;28;20033;-62
2023/03/26 06:00:10;;;;;;;9.48;3.40;;;;;;;;;;5045957;28;20216;-62
2023/03/26 06:02:37;;;;;;;13.05;3.50;;;;;;;;;;5049788;28;20106;-62
2023/03/26 06:05:03;;;;;;;9.07;3.50;;;;;;;;;;5046765;28;20529;-61
2023/03/26 06:07:30;;;;;;;8.73;3.40;;;;;;;;;;5047447;28;20044;-62
2023/03/26 06:09:56;;;;;;;17.65;3.92;;;;;;;;;;5044968;28;20052;-62
2023/03/26 06:12:22;;;;;;;18.60;4.68;;;;;;;;;;5015993;28;20044;-62
2023/03/26 06:14:48;;;;;;;9.50;3.92;;;;;;;;;;5048022;28;20044;-61
2023/03/26 06:17:15;;;;;;;11.82;4.88;;;;;;;;;;5047002;28;20055;-62
2023/03/26 06:19:41;;;;;;;13.25;4.13;;;;;;;;;;5049908;28;20041;-62
2023/03/26 06:22:07;;;;;;;18.80;5.25;;;;;;;;;;5031853;28;20040;-62
2023/03/26 06:24:33;;;;;;;17.77;4.53;;;;;;;;;;5045326;28;20033;-62
2023/03/26 06:26:59;;;;;;;11.55;6.00;;;;;;;;;;5047819;28;20183;-62
2023/03/26 06:29:26;;;;;;;9.43;3.95;;;;;;;;;;5048907;28;20060;-62
2023/03/26 06:31:52;;;;;;;18.63;4.45;;;;;;;;;;5051405;28;20113;-62
2023/03/26 06:34:18;;;;;;;14.40;3.63;;;;;;;;;;5036686;28;20487;-62
2023/03/26 06:36:44;;;;;;;11.98;3.65;;;;;;;;;;5054761;28;20037;-62
2023/03/26 06:39:10;;;;;;;11.30;4.15;;;;;;;;;;5018284;28;20136;-62
2023/03/26 06:41:37;;;;;;;18.23;4.03;;;;;;;;;;5030268;28;20045;-62
2023/03/26 06:44:03;;;;;;;9.98;3.90;;;;;;;;;;5056048;28;20059;-62
2023/03/26 06:46:29;;;;;;;10.75;3.75;;;;;;;;;;5049026;28;20398;-62
2023/03/26 06:48:55;;;;;;;18.20;3.90;;;;;;;;;;5052444;28;20036;-62
2023/03/26 06:51:21;;;;;;;12.85;5.03;;;;;;;;;;5048849;28;20471;-62
2023/03/26 06:53:47;;;;;;;12.50;3.38;;;;;;;;;;5054208;28;20097;-62
2023/03/26 06:56:14;;;;;;;13.57;4.70;;;;;;;;;;5051681;28;20123;-62
2023/03/26 06:58:40;;;;;;;12.35;3.55;;;;;;;;;;5047698;28;20510;-62
2023/03/26 07:01:07;;;;;;;8.10;3.05;;;;;;;;;;5050572;28;20038;-62
2023/03/26 07:03:33;;;;;;;13.70;4.05;;;;;;;;;;5052856;28;20502;-62
2023/03/26 07:05:59;;;;;;;9.43;3.85;;;;;;;;;;5044287;28;20383;-62
2023/03/26 07:08:25;;;;;;;16.42;3.78;;;;;;;;;;5048467;28;20079;-62
2023/03/26 07:10:51;;;;;;;12.77;3.95;;;;;;;;;;5049052;28;20128;-62
2023/03/26 07:13:17;;;;;;;10.13;3.85;;;;;;;;;;5026643;28;20065;-62
2023/03/26 07:15:43;;;;;;;15.93;4.45;;;;;;;;;;5037187;28;20192;-62
2023/03/26 07:18:10;;;;;;;9.63;3.30;;;;;;;;;;5055187;28;20073;-62
2023/03/26 07:20:36;;;;;;;13.13;4.25;;;;;;;;;;5055490;28;20033;-62
2023/03/26 07:23:03;;;;;;;12.73;4.03;;;;;;;;;;5032088;28;20399;-62
2023/03/26 07:25:29;;;;;;;9.90;3.30;;;;;;;;;;5044792;28;20041;-62
2023/03/26 07:28:11;;;;;;;15.02;3.55;;;;;;;;;;5046421;28;20053;-62
2023/03/26 07:30:55;;;;;;;17.40;5.30;;;;;;;;;;5046099;28;20068;-62
2023/03/26 07:33:32;;;;;;;14.40;3.88;;;;;;;;;;5044816;28;20098;-62
2023/03/26 07:35:58;;;;;;;13.32;3.67;;;;;;;;;;5046418;28;20082;-62
2023/03/26 07:38:33;;;;;;;13.18;4.28;;;;;;;;;;5031180;28;20048;-62
2023/03/26 07:41:02;;;;;;;21.60;3.67;;;;;;;;;;5046747;28;20037;-62
2023/03/26 07:43:28;;;;;;;7.10;3.53;;;;;;;;;;5043506;28;20037;-62
2023/03/26 07:45:56;;;;;;;13.10;4.18;;;;;;;;;;5047255;28;20045;-62
2023/03/26 07:48:24;;;;;;;13.50;3.63;;;;;;;;;;5044277;28;20042;-62
2023/03/26 07:50:50;;;;;;;15.13;3.78;;;;;;;;;;5031105;28;20371;-62
2023/03/26 07:53:17;;;;;;;7.68;2.75;;;;;;;;;;5046567;28;20102;-63
2023/03/26 07:55:50;;;;;;;11.30;3.72;;;;;;;;;;5045046;28;20053;-62
2023/03/26 07:58:31;;;;;;;16.38;3.63;;;;;;;;;;5042870;28;20119;-62
2023/03/26 08:01:06;;;;;;;15.18;3.25;;;;;;;;;;5045480;28;20478;-62
2023/03/26 08:03:44;;;;;;;13.38;3.33;;;;;;;;;;5042624;28;20379;-62
2023/03/26 08:06:13;;;;;;;14.20;3.83;;;;;;;;;;5035694;28;20048;-62
2023/03/26 08:09:00;;;;;;;10.38;2.85;;;;;;;;;;5034746;28;20047;-62
2023/03/26 08:11:32;;;;;;;8.30;4.00;;;;;;;;;;5022258;28;20044;-62
2023/03/26 08:14:05;;;;;;;16.92;4.47;;;;;;;;;;5046204;28;20039;-62
2023/03/26 08:16:53;;;;;;;19.85;4.35;;;;;;;;;;5001726;28;20051;-62
2023/03/26 08:19:23;;;;;;;11.57;3.40;;;;;;;;;;5049199;28;20645;-62
2023/03/26 08:22:12;;;;;;;14.57;4.50;;;;;;;;;;5051908;28;20091;-62
2023/03/26 08:24:58;;;;;;;13.05;4.50;;;;;;;;;;5025522;28;20125;-63
2023/03/26 08:43:16;;;;;;;9.13;3.35;;;;;;;;;;5082785;27;20397;-62
2023/03/26 08:46:21;;;;;;;11.30;3.05;;;;;;;;;;5063923;28;20056;-62
2023/03/26 08:48:50;;;;;;;6.32;2.60;;;;;;;;;;5012505;28;20493;-62
2023/03/26 08:51:41;;;;;;;17.67;3.95;;;;;;;;;;5039191;28;20052;-62
2023/03/26 08:54:10;;;;;;;14.63;3.80;;;;;;;;;;5040439;28;20052;-62
2023/03/26 08:56:58;;;;;;;8.25;3.28;;;;;;;;;;5041051;28;20045;-63
2023/03/26 08:59:43;;;;;;;10.35;3.30;;;;;;;;;;5034634;28;20050;-62
2023/03/26 09:02:25;;;;;;;11.93;3.13;;;;;;;;;;5037403;28;20509;-63
2023/03/26 09:04:54;;;;;;;11.90;3.58;;;;;;;;;;5020069;28;20045;-63
2023/03/26 09:07:46;;;;;;;9.07;4.60;;;;;;;;;;5040559;28;20041;-63
2023/03/26 09:10:19;;;;;;;11.23;2.63;;;;;;;;;;5038510;28;20045;-62
2023/03/26 09:13:04;;;;;;;6.73;3.00;;;;;;;;;;5044573;28;20086;-62
2023/03/26 09:15:39;;;;;;;21.27;3.67;;;;;;;;;;5037978;28;20394;-63
2023/03/26 09:18:24;;;;;;;11.32;3.22;;;;;;;;;;5034421;28;20137;-62
2023/03/26 09:20:57;;;;;;;12.90;3.25;;;;;;;;;;5078617;28;20063;-63
2023/03/26 09:23:26;;;;;;;7.75;2.90;;;;;;;;;;5085044;28;20048;-63
2023/03/26 09:25:58;;;;;;;6.88;2.60;;;;;;;;;;5090717;28;20706;-63
2023/03/26 09:28:30;;;;;;;10.70;3.17;;;;;;;;;;5073248;28;20028;-62
2023/03/26 09:31:04;;;;;;;10.20;4.15;;;;;;;;;;5083203;28;20282;-62
2023/03/26 09:33:33;;;;;;;10.23;3.10;;;;;;;;;;5083361;28;20516;-63
2023/03/26 09:36:08;;;;;;;14.57;2.85;;;;;;;;;;5077689;28;20225;-63
2023/03/26 09:38:35;;;;;;;7.45;3.28;;;;;;;;;;5061079;28;20414;-62
2023/03/26 09:41:06;;;;;;;13.82;5.05;;;;;;;;;;5062112;28;20385;-63
2023/03/26 09:43:45;;;;;;;10.60;3.03;;;;;;;;;;5065846;28;20043;-62
2023/03/26 09:46:23;;;;;;;15.85;5.10;;;;;;;;;;5053350;28;20036;-63
2023/03/26 09:49:01;;;;;;;12.70;6.35;;;;;;;;;;5063900;28;20075;-62
2023/03/26 09:51:46;;;;;;;16.15;6.40;;;;;;;;;;5063560;28;20047;-62
2023/03/26 09:54:31;;;;;;;17.67;9.27;;;;;;;;;;5054839;28;20127;-62
2023/03/26 09:56:57;;;;;;;12.13;4.68;;;;;;;;;;5052327;28;20041;-62
2023/03/26 09:59:52;;;;;;;10.93;4.22;;;;;;;;;;5049570;28;20053;-63
2023/03/26 10:02:57;;;;;;;9.57;3.53;;;;;;;;;;4983030;28;20059;-62
2023/03/26 10:05:44;;;;;;;12.02;3.60;;;;;;;;;;4998642;28;20049;-62
2023/03/26 10:08:28;;;;;;;11.18;3.20;;;;;;;;;;5002966;28;20037;-62
2023/03/26 10:10:57;;;;;;;14.35;3.88;;;;;;;;;;5035017;28;20128;-63
2023/03/26 10:13:42;;;;;;;13.55;5.68;;;;;;;;;;5051677;28;20041;-62
2023/03/26 10:16:25;;;;;;;8.88;3.33;;;;;;;;;;5057126;28;20392;-63
2023/03/26 10:18:51;;;;;;;;;;;;;;;;;;5053694;28;20056;-62
2023/03/26 10:21:21;;;;;;;9.93;3.20;;;;;;;;;;5050189;28;19968;-63
2023/03/26 10:23:48;;;;;;;10.18;3.65;;;;;;;;;;5051013;28;20068;-62
2023/03/26 10:26:17;;;;;;;13.05;3.38;;;;;;;;;;5055651;28;20090;-62
2023/03/26 10:28:51;;;;;;;9.80;2.88;;;;;;;;;;5052851;28;20044;-62
2023/03/26 10:31:20;;;;;;;9.70;3.28;;;;;;;;;;5042827;28;20064;-63
2023/03/26 10:34:05;;;;;;;11.50;4.43;;;;;;;;;;5051914;28;20041;-62
2023/03/26 10:36:46;;;;;;;10.80;2.88;;;;;;;;;;5050406;28;20102;-62
2023/03/26 10:39:19;;;;;;;9.27;2.90;;;;;;;;;;5049022;28;20295;-64
2023/03/26 10:42:04;;;;;;;8.90;3.25;;;;;;;;;;5065425;28;20056;-63
2023/03/26 10:44:48;;;;;;;9.35;2.83;;;;;;;;;;5061368;28;20041;-63
2023/03/26 10:47:14;;;;;;;7.43;3.45;;;;;;;;;;5077732;28;20111;-62
2023/03/26 10:49:40;;;;;;;9.32;2.95;;;;;;;;;;5078205;28;20366;-62
2023/03/26 10:52:08;;;;;;;11.70;3.25;;;;;;;;;;5059780;28;20068;-62
2023/03/26 10:54:37;;;;;;;11.20;3.55;;;;;;;;;;5064341;28;20126;-62
2023/03/26 10:57:09;;;;;;;8.95;3.03;;;;;;;;;;5057384;28;20082;-62
2023/03/26 10:59:36;;;;;;;8.15;3.03;;;;;;;;;;5053956;28;20100;-62
2023/03/26 11:02:20;;;;;;;4.70;2.75;;;;;;;;;;5041832;28;20052;-62
2023/03/26 11:05:02;;;;;;;9.93;3.03;;;;;;;;;;5076868;28;20064;-63
2023/03/26 11:07:31;;;;;;;13.50;3.28;;;;;;;;;;5076966;28;20040;-63
2023/03/26 11:10:23;;;;;;;10.35;3.53;;;;;;;;;;5068238;28;20044;-62
2023/03/26 11:13:07;;;;;;;10.52;3.88;;;;;;;;;;5075573;28;20041;-63
2023/03/26 11:15:46;;;;;;;6.72;2.40;;;;;;;;;;5072176;28;20441;-62
2023/03/26 11:18:16;;;;;;;5.57;2.30;;;;;;;;;;5042682;28;20446;-62
2023/03/26 11:20:47;;;;;;;12.63;3.33;;;;;;;;;;5050145;28;20126;-62
2023/03/26 11:23:26;;;;;;;9.95;2.33;;;;;;;;;;5076384;28;20067;-62
2023/03/26 11:25:58;;;;;;;7.50;2.72;;;;;;;;;;5067803;28;20040;-62
2023/03/26 11:28:39;;;;;;;14.10;3.25;;;;;;;;;;5070823;28;20035;-62
2023/03/26 11:31:18;;;;;;;7.22;2.17;;;;;;;;;;5081376;28;20043;-62
2023/03/26 11:33:45;;;;;;;11.45;3.35;;;;;;;;;;5059691;28;20059;-62
2023/03/26 11:36:13;;;;;;;7.45;2.70;;;;;;;;;;5069610;28;20166;-63
2023/03/26 11:38:42;;;;;;;6.20;3.20;;;;;;;;;;5067308;28;20136;-62
2023/03/26 11:41:14;;;;;;;10.40;3.10;;;;;;;;;;5023491;28;20128;-62
2023/03/26 11:43:40;;;;;;;11.75;2.38;;;;;;;;;;5048611;28;20045;-62
2023/03/26 11:46:12;;;;;;;14.07;3.55;;;;;;;;;;5049467;28;20071;-62
2023/03/26 11:48:43;;;;;;;16.27;3.38;;;;;;;;;;5050036;28;20114;-63
2023/03/26 11:51:38;;;;;;;9.32;2.80;;;;;;;;;;5060190;28;20080;-62
2023/03/26 11:54:06;;;;;;;10.25;3.20;;;;;;;;;;5012037;28;20049;-63
2023/03/26 11:56:41;;;;;;;9.93;2.60;;;;;;;;;;5048372;28;20076;-62
2023/03/26 11:59:19;;;;;;;10.40;2.80;;;;;;;;;;5055942;28;20405;-63
2023/03/26 12:01:55;;;;;;;13.23;3.58;;;;;;;;;;5053064;28;20477;-63
2023/03/26 12:04:35;;;;;;;7.22;2.38;;;;;;;;;;5050159;28;20404;-62
2023/03/26 12:07:21;;;;;;;11.43;2.60;;;;;;;;;;5051776;28;20477;-62
2023/03/26 12:09:57;;;;;;;11.07;3.33;;;;;;;;;;5045518;28;20057;-62
2023/03/26 12:12:30;;;;;;;10.32;2.35;;;;;;;;;;5047881;28;20043;-62
2023/03/26 12:14:57;;;;;;;10.70;2.33;;;;;;;;;;5044677;28;20055;-63
2023/03/26 12:17:30;;;;;;;8.23;3.35;;;;;;;;;;5028028;28;20037;-62
2023/03/26 12:19:57;;;;;;;7.95;2.28;;;;;;;;;;5047977;28;20041;-62
2023/03/26 12:22:36;;;;;;;9.13;2.83;;;;;;;;;;5048889;28;20040;-63
2023/03/26 12:25:02;;;;;;;9.18;2.92;;;;;;;;;;5039377;28;20192;-62
2023/03/26 12:27:29;;;;;;;7.60;2.40;;;;;;;;;;5028439;28;20041;-62
2023/03/26 12:30:08;;;;;;;10.48;3.05;;;;;;;;;;5046199;28;20116;-62
2023/03/26 12:32:40;;;;;;;8.43;3.10;;;;;;;;;;5026580;28;20044;-62
2023/03/26 12:35:07;;;;;;;6.10;2.53;;;;;;;;;;5047393;28;20120;-62
2023/03/26 12:37:35;;;;;;;8.30;3.08;;;;;;;;;;5040310;28;20037;-62
2023/03/26 12:40:24;;;;;;;13.88;3.20;;;;;;;;;;5045113;28;20098;-62
2023/03/26 12:42:51;;;;;;;14.90;3.00;;;;;;;;;;5040489;28;20053;-62
2023/03/26 12:45:20;;;;;;;11.10;2.47;;;;;;;;;;5040838;28;20474;-62
2023/03/26 12:47:50;;;;;;;9.57;3.22;;;;;;;;;;5051488;28;20046;-62
2023/03/26 12:50:16;;;;;;;8.70;3.00;;;;;;;;;;5041441;28;20469;-62
2023/03/26 12:52:51;;;;;;;10.50;2.83;;;;;;;;;;5044617;28;20060;-62
2023/03/26 12:55:20;;;;;;;8.38;2.58;;;;;;;;;;5046623;28;20040;-62
2023/03/26 12:57:53;;;;;;;10.75;2.58;;;;;;;;;;5037412;28;20419;-62
2023/03/26 13:00:29;;;;;;;8.07;2.50;;;;;;;;;;5041630;28;20048;-62
2023/03/26 13:02:58;;;;;;;9.52;2.80;;;;;;;;;;5047802;28;20130;-63
2023/03/26 13:05:28;;;;;;;11.98;2.67;;;;;;;;;;5056550;28;20044;-63
2023/03/26 13:07:54;;;;;;;10.43;2.50;;;;;;;;;;5047869;28;20044;-62
2023/03/26 13:10:53;;;;;;;8.50;2.10;;;;;;;;;;5043258;28;20160;-62
2023/03/26 13:13:36;;;;;;;10.13;3.35;;;;;;;;;;5012399;28;20041;-62
2023/03/26 13:16:02;;;;;;;;;;;;;;;;;;5041075;28;20044;-62
2023/03/26 13:18:47;;;;;;;8.32;2.97;;;;;;;;;;5049016;28;19917;-62
2023/03/26 13:21:34;;;;;;;6.68;3.05;;;;;;;;;;5050848;28;20127;-62
2023/03/26 13:24:04;;;;;;;10.35;2.63;;;;;;;;;;5048676;28;20459;-62
2023/03/26 13:26:48;;;;;;;4.70;1.80;;;;;;;;;;5028908;28;20037;-62
2023/03/26 13:29:16;;;;;;;9.10;2.15;;;;;;;;;;5046616;28;20037;-62
2023/03/26 13:31:51;;;;;;;7.57;2.67;;;;;;;;;;5047872;28;20040;-62
2023/03/26 13:34:30;;;;;;;5.95;1.75;;;;;;;;;;5051895;28;20041;-62
2023/03/26 13:37:08;;;;;;;13.75;3.33;;;;;;;;;;5053915;28;20044;-62
2023/03/26 13:39:38;;;;;;;14.77;3.05;;;;;;;;;;5051286;28;20040;-62
2023/03/26 13:42:04;;;;;;;6.82;2.22;;;;;;;;;;5049101;28;20048;-62
2023/03/26 13:44:41;;;;;;;9.85;2.40;;;;;;;;;;5063425;28;20060;-62
2023/03/26 13:47:13;;;;;;;8.57;2.58;;;;;;;;;;5041027;28;20045;-62
2023/03/26 13:49:42;;;;;;;12.00;2.80;;;;;;;;;;5064521;28;20037;-62
2023/03/26 13:52:08;;;;;;;12.13;2.85;;;;;;;;;;5047681;28;20511;-62
2023/03/26 13:54:49;;;;;;;7.10;2.30;;;;;;;;;;5072401;28;20043;-62
2023/03/26 13:57:20;;;;;;;9.82;2.63;;;;;;;;;;5063931;28;20493;-62
2023/03/26 13:59:49;;;;;;;12.52;3.15;;;;;;;;;;5075231;28;20040;-62
2023/03/26 14:02:34;;;;;;;7.80;3.05;;;;;;;;;;5055934;28;20051;-62
2023/03/26 14:05:14;;;;;;;11.98;2.75;;;;;;;;;;5060068;28;20051;-62
2023/03/26 14:07:43;;;;;;;12.18;2.67;;;;;;;;;;5063339;28;20040;-62
2023/03/26 14:10:12;;;;;;;8.52;3.47;;;;;;;;;;5070210;28;20080;-62
2023/03/26 14:12:47;;;;;;;14.80;2.78;;;;;;;;;;5069830;28;20155;-62
2023/03/26 14:15:23;;;;;;;7.88;2.33;;;;;;;;;;5062135;28;20047;-62
2023/03/26 14:17:58;;;;;;;5.28;2.78;;;;;;;;;;5062179;28;20091;-61
2023/03/26 14:20:43;;;;;;;6.07;2.17;;;;;;;;;;5068131;28;20041;-62
2023/03/26 14:23:30;;;;;;;11.75;2.50;;;;;;;;;;5062579;28;20052;-62
2023/03/26 14:26:15;;;;;;;7.30;2.40;;;;;;;;;;5059968;28;20040;-62
2023/03/26 14:28:47;;;;;;;9.55;2.38;;;;;;;;;;5056127;28;20041;-62
2023/03/26 14:31:19;;;;;;;11.80;2.60;;;;;;;;;;5067863;28;20111;-62
2023/03/26 14:33:45;;;;;;;10.07;2.78;;;;;;;;;;5068780;28;20784;-62
2023/03/26 14:36:14;;;;;;;9.55;2.95;;;;;;;;;;5067946;28;20032;-62
2023/03/26 14:38:59;;;;;;;6.80;1.92;;;;;;;;;;5061451;28;20041;-61
2023/03/26 14:41:45;;;;;;;10.15;2.20;;;;;;;;;;5065854;28;20041;-61
2023/03/26 14:44:30;;;;;;;11.43;2.38;;;;;;;;;;5066082;28;20041;-62
2023/03/26 14:46:56;;;;;;;8.90;2.00;;;;;;;;;;5051648;28;20075;-62
2023/03/26 14:49:27;;;;;;;7.32;2.83;;;;;;;;;;5056964;28;20149;-62
2023/03/26 14:51:53;;;;;;;6.72;3.17;;;;;;;;;;5067831;28;20033;-61
2023/03/26 14:54:22;;;;;;;8.98;2.80;;;;;;;;;;5052230;28;20040;-61
2023/03/26 14:56:48;;;;;;;7.00;2.40;;;;;;;;;;5073169;28;20044;-61
2023/03/26 14:59:15;;;;;;;6.85;2.25;;;;;;;;;;5074217;28;20043;-61
2023/03/26 15:02:00;;;;;;;7.57;2.33;;;;;;;;;;5068367;28;20043;-61
2023/03/26 15:04:42;;;;;;;12.10;2.45;;;;;;;;;;5062778;28;20044;-60
2023/03/26 15:07:14;;;;;;;6.57;2.05;;;;;;;;;;5063140;28;20507;-60
2023/03/26 15:09:59;;;;;;;6.80;1.60;;;;;;;;;;5058490;28;20405;-58
2023/03/26 15:12:25;;;;;;;6.40;2.28;;;;;;;;;;5066483;28;20079;-60
2023/03/26 15:14:57;;;;;;;6.65;2.22;;;;;;;;;;5057826;28;20557;-58